Wednesday, January 17, 2018, 9:52 AM EST
Back to Local

KJHW, Jamestown, Chautauqua County/jamestown Airport

Location: Jamestown, NY, United States Lat: 42.15
Local Time: 9:52 AM EST (14:52 GMT) Lon: -79.267
Time Zone: US/Eastern Elev: 1722 ft

Show me the last for .
Show Decoded

2018-01-17 09:20 METAR KJHW 171420Z AUTO 21007KT 3SM -SN BR OVC009 M16/M18 A3034 RMK AO2 P0000
                 FZRANO =
2018-01-17 08:56 METAR KJHW 171356Z AUTO 20006KT 1 3/4SM -SN BR OVC009 M16/M18 A3034 RMK AO2 VIS
                 1V3 SLP319 P0000 T11611183 FZRANO =
2018-01-17 08:51 METAR KJHW 171351Z AUTO 21006KT 2SM -SN BR BKN009 OVC014 M16/M18 A3034 RMK AO2
                 VIS 1 3/4V3 P0000 FZRANO =
2018-01-17 08:20 METAR KJHW 171320Z AUTO 22007KT 2SM -SN BR OVC011 M17/M18 A3034 RMK AO2 P0000
                 FZRANO =
2018-01-17 08:09 METAR KJHW 171309Z AUTO 21008KT 2SM -SN BR OVC009 M17/M18 A3033 RMK AO2 P0000
                 FZRANO =
2018-01-17 07:56 METAR KJHW 171256Z AUTO 21006KT 6SM -SN BR OVC009 M17/M18 A3033 RMK AO2 SLP319
                 P0000 T11671183 FZRANO =
2018-01-17 07:41 METAR KJHW 171241Z AUTO 22007KT 4SM -SN BR BKN009 OVC048 M17/M18 A3033 RMK AO2
                 P0000 FZRANO =
2018-01-17 07:32 METAR KJHW 171232Z AUTO 22007KT 5SM -SN BR SCT009 OVC048 M17/M18 A3033 RMK AO2
                 P0000 FZRANO =
2018-01-17 06:56 METAR KJHW 171156Z AUTO 22010KT 7SM -SN OVC046 M17/M18 A3032 RMK AO2 SNB1057
                 SLP314 P0000 60000 T11671183 11139 21172 50000 FZRANO =
2018-01-17 05:56 METAR KJHW 171056Z AUTO 22009KT 9SM BKN050 M17/M19 A3033 RMK AO2 SNE0957B39E48
                 SLP315 P0000 T11721189 FZRANO =
2018-01-17 04:56 METAR KJHW 170956Z AUTO 21008KT 9SM -SN CLR M17/M18 A3033 RMK AO2 SLP314 P0000
                 T11671183 FZRANO =
2018-01-17 03:56 METAR KJHW 170856Z AUTO 22011KT 8SM -SN CLR M16/M18 A3033 RMK AO2 SLP313 P0000
                 60000 T11561178 50001 FZRANO =
2018-01-17 02:56 METAR KJHW 170756Z AUTO 23009KT 6SM -SN BR FEW017 OVC041 M14/M17 A3033 RMK AO2
                 SLP310 P0000 T11441167 FZRANO =
2018-01-17 01:56 METAR KJHW 170656Z AUTO 23009KT 7SM -SN OVC033 M14/M16 A3033 RMK AO2 SLP308
                 P0000 T11391161 FZRANO =
2018-01-17 01:11 METAR KJHW 170611Z AUTO 24006KT 9SM -SN FEW014 SCT020 OVC031 M14/M16 A3032 RMK
                 AO2 P0000 FZRANO =
2018-01-17 00:56 METAR KJHW 170556Z AUTO 21004KT 9SM -SN BKN020 OVC029 M14/M16 A3032 RMK AO2
                 SLP306 P0000 60000 T11391161 11117 21139 58003 FZRANO =
2018-01-16 23:56 METAR KJHW 170456Z AUTO 21004KT 9SM -SN OVC020 M13/M16 A3033 RMK AO2 SLP309
                 P0000 T11331161 410441133 FZRANO =
2018-01-16 22:56 METAR KJHW 170356Z AUTO 23006KT 9SM -SN OVC018 M13/M16 A3033 RMK AO2 SLP310
                 P0000 T11331161 FZRANO =
2018-01-16 21:56 METAR KJHW 170256Z AUTO 27009KT 8SM -SN OVC016 M13/M15 A3033 RMK AO2 SLP309
                 P0000 60000 T11281150 51006 FZRANO =
2018-01-16 21:22 METAR KJHW 170222Z AUTO 26007KT 9SM -SN OVC016 M13/M14 A3033 RMK AO2 P0000
                 FZRANO =
2018-01-16 20:56 METAR KJHW 170156Z AUTO 28006KT 9SM -SN OVC014 M12/M14 A3033 RMK AO2 SLP309
                 P0000 T11221144 FZRANO =
2018-01-16 20:18 METAR KJHW 170118Z AUTO 30006KT 9SM -SN BKN012 OVC021 M12/M14 A3033 RMK AO2
                 P0000 FZRANO =
2018-01-16 19:56 METAR KJHW 170056Z AUTO 29004KT 4SM -SN BR OVC021 M12/M14 A3032 RMK AO2 SLP308
                 P0000 T11221144 FZRANO =
2018-01-16 18:56 METAR KJHW 162356Z AUTO 30006KT 4SM -SN BR OVC015 M12/M14 A3031 RMK AO2 SLP303
                 P0000 60000 T11171139 11044 21117 53016 FZRANO =
2018-01-16 18:05 METAR KJHW 162305Z AUTO 31008KT 8SM -SN BKN013 OVC044 M12/M13 A3030 RMK AO2
                 P0000 FZRANO =
2018-01-16 17:56 METAR KJHW 162256Z AUTO 31006KT 8SM -SN FEW009 BKN015 OVC044 M11/M13 A3029 RMK
                 AO2 SLP297 P0000 T11111133 FZRANO =
2018-01-16 17:35 METAR KJHW 162235Z AUTO 32006KT 5SM -SN BR SCT009 OVC029 M11/M13 A3029 RMK AO2
                 P0000 FZRANO =
2018-01-16 17:22 METAR KJHW 162222Z AUTO 31006KT 7SM -SN BKN009 BKN018 OVC031 M11/M13 A3028 RMK
                 AO2 P0000 FZRANO =
2018-01-16 17:04 METAR KJHW 162204Z AUTO 31009KT 6SM -SN BR SCT009 BKN019 OVC030 M10/M12 A3028
                 RMK AO2 P0000 FZRANO =
2018-01-16 16:56 METAR KJHW 162156Z AUTO 31010KT 5SM -SN BR FEW010 BKN016 OVC021 M10/M12 A3028
                 RMK AO2 SLP289 P0000 T11001117 FZRANO =
2018-01-16 16:46 METAR KJHW 162146Z AUTO 34006KT 5SM -SN BR BKN013 OVC021 M10/M12 A3028 RMK AO2
                 P0000 FZRANO =
2018-01-16 16:19 METAR KJHW 162119Z AUTO 35008KT 4SM -SN BR OVC016 M09/M11 A3027 RMK AO2 P0000
                 FZRANO =
2018-01-16 15:56 METAR KJHW 162056Z AUTO 35010KT 2SM -SN BR OVC018 M09/M11 A3026 RMK AO2 SLP284
                 P0000 60000 T10891106 55000 FZRANO =
2018-01-16 15:39 METAR KJHW 162039Z AUTO 35010KT 2SM -SN BR OVC020 M09/M11 A3025 RMK AO2 VIS 1
                 3/4V2 1/2 P0000 FZRANO =
2018-01-16 15:26 METAR KJHW 162026Z AUTO 35012KT 1 3/4SM -SN BR OVC020 M08/M10 A3025 RMK AO2
                 P0000 FZRANO =
2018-01-16 15:16 METAR KJHW 162016Z AUTO 36010KT 1SM -SN BR BKN017 OVC024 M08/M09 A3025 RMK AO2
                 P0000 FZRANO RVRNO =
2018-01-16 15:05 METAR KJHW 162005Z AUTO 33011KT 1 1/4SM -SN BR OVC015 M07/M09 A3026 RMK AO2
                 P0000 FZRANO =
2018-01-16 14:56 METAR KJHW 161956Z AUTO 35009KT 1SM -SN OVC013 M06/M09 A3025 RMK AO2 SLP278
                 P0000 T10611089 FZRANO RVRNO =
2018-01-16 14:40 METAR KJHW 161940Z AUTO 00000KT 2 1/2SM -SN BKN013 OVC020 M04/M07 A3025 RMK AO2
                 VIS 1 1/4V5 P0000 FZRANO =
2018-01-16 13:56 METAR KJHW 161856Z AUTO 19005KT 5SM -SN BKN017 OVC023 M05/M08 A3025 RMK AO2
                 SNB00E25B53 SLP278 P0000 T10501078 FZRANO =
2018-01-16 12:56 METAR KJHW 161756Z AUTO 16005KT 9SM OVC021 M05/M09 A3026 RMK AO2 SNE52 SLP281
                 P0000 60000 T10501089 11044 21094 58016 FZRANO =
2018-01-16 12:07 METAR KJHW 161707Z AUTO VRB03KT 9SM -SN FEW017 BKN028 OVC041 M04/M09 A3029 RMK
                 AO2 P0000 FZRANO =
2018-01-16 11:56 METAR KJHW 161656Z AUTO 14003KT 9SM -SN FEW015 SCT030 OVC041 M04/M09 A3029 RMK
                 AO2 SNE14B30 SLP292 P0000 T10441089 FZRANO =
2018-01-16 10:56 METAR KJHW 161556Z AUTO 18003KT 7SM -SN OVC039 M05/M08 A3032 RMK AO2 SNB15
                 SLP301 P0000 T10501083 FZRANO =
2018-01-16 09:56 METAR KJHW 161456Z AUTO 00000KT 10SM OVC037 M06/M07 A3031 RMK AO2 SLP299 60000
                 T10611072 51007 FZRANO =

Support USWX by starting your Amazon purchase here.